Time;durP1;ratioP1;P1;durP2;ratioP2;P2;SDS_P1;SDS_P2;PMS_P1;PMS_P2;Temp;Humidity;BMP_temperature;BMP_pressure;BME280_temperature;BME280_humidity;BME280_pressure;Samples;Min_cycle;Max_cycle;Signal;HPM_P1;HPM_P2
2021/08/29 00:02:00;;;;;;;9.98;4.43;;;16.10;99.90;;;;;;5036316;28;20042;-63
2021/08/29 00:04:26;;;;;;;14.95;4.57;;;16.00;99.90;;;;;;5037002;28;20042;-63
2021/08/29 00:06:52;;;;;;;16.90;4.97;;;16.10;99.90;;;;;;5035351;28;20509;-63
2021/08/29 00:09:18;;;;;;;8.40;3.70;;;16.10;99.90;;;;;;5042852;28;20452;-63
2021/08/29 00:11:43;;;;;;;13.10;3.75;;;16.10;99.90;;;;;;5036776;28;20280;-63
2021/08/29 00:14:09;;;;;;;15.18;3.90;;;16.10;99.90;;;;;;5046276;28;20127;-63
2021/08/29 00:16:35;;;;;;;19.00;4.40;;;16.20;99.90;;;;;;5038735;28;20105;-63
2021/08/29 00:19:01;;;;;;;9.63;4.00;;;16.10;99.90;;;;;;5045146;28;20034;-63
2021/08/29 00:21:26;;;;;;;19.10;4.80;;;16.10;99.90;;;;;;5039799;28;20054;-63
2021/08/29 00:23:52;;;;;;;14.35;4.28;;;16.20;99.90;;;;;;5042582;28;20041;-64
2021/08/29 00:26:18;;;;;;;15.80;4.85;;;16.20;99.90;;;;;;5045574;28;20073;-64
2021/08/29 00:28:44;;;;;;;10.65;4.70;;;16.20;99.90;;;;;;5042170;28;20034;-64
2021/08/29 00:31:09;;;;;;;16.13;4.45;;;16.20;99.90;;;;;;5043904;28;20557;-63
2021/08/29 00:33:35;;;;;;;12.15;4.60;;;16.20;99.90;;;;;;5046042;28;20053;-64
2021/08/29 00:36:01;;;;;;;15.15;4.72;;;16.30;99.90;;;;;;5045479;28;20038;-64
2021/08/29 00:38:27;;;;;;;17.15;4.43;;;16.20;99.90;;;;;;5043247;28;20300;-64
2021/08/29 00:40:52;;;;;;;12.85;4.05;;;16.30;99.90;;;;;;5039079;28;20591;-63
2021/08/29 00:43:19;;;;;;;20.63;4.93;;;16.30;99.90;;;;;;5045055;28;20056;-64
2021/08/29 00:45:46;;;;;;;12.43;4.32;;;16.20;99.90;;;;;;5045267;28;20049;-63
2021/08/29 00:48:14;;;;;;;13.47;4.23;;;16.20;99.90;;;;;;5044872;28;20120;-64
2021/08/29 00:50:44;;;;;;;10.40;4.13;;;16.20;99.90;;;;;;5036443;28;20069;-63
2021/08/29 00:53:11;;;;;;;9.23;4.40;;;16.20;99.90;;;;;;5043963;28;20057;-63
2021/08/29 00:55:38;;;;;;;17.30;4.80;;;16.20;99.90;;;;;;5036593;28;20034;-63
2021/08/29 00:58:04;;;;;;;10.07;4.07;;;16.10;99.90;;;;;;5042637;28;20111;-62
2021/08/29 01:00:31;;;;;;;15.32;3.90;;;16.20;99.90;;;;;;5047187;28;20046;-62
2021/08/29 01:02:59;;;;;;;12.55;4.47;;;16.20;99.90;;;;;;5041918;28;20092;-63
2021/08/29 01:05:34;;;;;;;19.42;4.10;;;16.20;99.90;;;;;;5033876;28;20041;-62
2021/08/29 01:08:07;;;;;;;11.38;4.38;;;16.20;99.90;;;;;;5041149;28;20053;-63
2021/08/29 01:10:44;;;;;;;10.32;3.28;;;16.20;99.90;;;;;;5034281;28;20045;-62
2021/08/29 01:13:18;;;;;;;10.50;3.53;;;16.20;99.90;;;;;;5040849;28;20053;-62
2021/08/29 01:15:47;;;;;;;13.35;3.92;;;16.20;99.90;;;;;;5033535;28;20042;-63
2021/08/29 01:18:15;;;;;;;8.18;3.28;;;16.10;99.90;;;;;;5040563;28;20057;-63
2021/08/29 01:20:56;;;;;;;;;;;16.20;99.90;;;;;;5046473;28;20037;-63
2021/08/29 01:23:23;;;;;;;11.65;3.85;;;16.10;99.90;;;;;;5039391;28;19928;-62
2021/08/29 01:25:55;;;;;;;18.95;3.95;;;16.10;99.90;;;;;;5045935;28;20071;-62
2021/08/29 01:28:27;;;;;;;7.20;3.88;;;16.20;99.90;;;;;;5034393;28;20045;-62
2021/08/29 01:30:53;;;;;;;14.40;3.85;;;16.10;99.90;;;;;;5040934;28;20065;-62
2021/08/29 01:33:19;;;;;;;10.02;4.25;;;16.10;99.90;;;;;;5034507;28;20041;-62
2021/08/29 01:35:45;;;;;;;7.20;3.08;;;16.10;99.90;;;;;;5039826;28;20069;-63
2021/08/29 01:38:12;;;;;;;12.48;4.47;;;16.20;99.90;;;;;;5046509;28;20045;-62
2021/08/29 01:40:38;;;;;;;9.93;3.28;;;16.20;99.90;;;;;;5039131;28;20049;-62
2021/08/29 01:43:04;;;;;;;8.95;3.05;;;16.20;99.90;;;;;;5045053;28;20388;-62
2021/08/29 01:45:32;;;;;;;12.82;3.85;;;16.20;99.90;;;;;;5038393;28;20059;-62
2021/08/29 01:47:59;;;;;;;14.07;4.25;;;16.20;99.90;;;;;;5044579;28;20069;-64
2021/08/29 01:50:26;;;;;;;14.47;3.40;;;16.10;99.90;;;;;;5036512;28;20088;-63
2021/08/29 01:52:52;;;;;;;15.45;4.25;;;16.10;99.90;;;;;;5043574;28;20128;-64
2021/08/29 01:55:18;;;;;;;8.88;3.13;;;16.10;99.90;;;;;;5036513;28;20069;-64
2021/08/29 01:57:43;;;;;;;15.20;4.28;;;16.10;99.90;;;;;;5043293;28;20041;-62
2021/08/29 02:00:10;;;;;;;14.15;3.88;;;16.10;99.90;;;;;;5035575;28;20041;-63
2021/08/29 02:02:36;;;;;;;14.73;4.13;;;16.00;99.90;;;;;;5042150;28;20045;-62
2021/08/29 02:05:02;;;;;;;9.40;3.65;;;16.00;99.90;;;;;;5035018;28;20041;-62
2021/08/29 02:07:40;;;;;;;12.20;3.47;;;16.10;99.90;;;;;;5044211;28;20045;-62
2021/08/29 02:10:07;;;;;;;15.00;4.18;;;16.00;99.90;;;;;;5033965;28;20046;-62
2021/08/29 02:12:39;;;;;;;8.70;3.55;;;16.10;99.90;;;;;;5039617;28;20129;-62
2021/08/29 02:15:08;;;;;;;12.63;4.60;;;16.10;99.90;;;;;;5033456;28;20042;-62
2021/08/29 02:17:36;;;;;;;9.80;3.60;;;16.00;99.90;;;;;;5040143;28;20105;-62
2021/08/29 02:20:06;;;;;;;14.27;4.18;;;16.10;99.90;;;;;;5032141;28;20060;-62
2021/08/29 02:22:33;;;;;;;10.73;3.55;;;16.10;99.90;;;;;;5038647;28;20045;-62
2021/08/29 02:25:01;;;;;;;12.68;3.40;;;16.10;99.90;;;;;;5044937;28;20191;-64
2021/08/29 02:27:27;;;;;;;7.82;3.60;;;16.10;99.90;;;;;;5040860;28;20041;-62
2021/08/29 02:29:53;;;;;;;10.80;3.03;;;16.10;99.90;;;;;;5042971;28;20072;-62
2021/08/29 02:32:19;;;;;;;12.55;3.25;;;16.10;99.90;;;;;;5051018;28;20049;-62
2021/08/29 02:34:45;;;;;;;12.98;3.83;;;16.10;99.90;;;;;;5050474;28;20140;-62
2021/08/29 02:37:11;;;;;;;10.43;4.18;;;16.10;99.90;;;;;;5038103;28;20073;-63
2021/08/29 02:39:38;;;;;;;8.82;3.33;;;16.10;99.90;;;;;;5047011;28;20416;-62
2021/08/29 02:42:07;;;;;;;10.10;3.80;;;16.10;99.90;;;;;;5046456;28;20037;-64
2021/08/29 02:44:35;;;;;;;13.70;3.50;;;16.00;99.90;;;;;;5042234;28;20044;-63
2021/08/29 02:47:01;;;;;;;10.43;3.33;;;16.00;99.90;;;;;;5047783;28;20092;-62
2021/08/29 02:49:27;;;;;;;9.90;4.00;;;16.00;99.90;;;;;;5045805;28;20037;-64
2021/08/29 02:51:53;;;;;;;12.98;3.28;;;16.00;99.90;;;;;;5049655;28;20049;-62
2021/08/29 02:54:20;;;;;;;16.38;3.53;;;16.00;99.90;;;;;;5040912;28;20073;-63
2021/08/29 02:56:50;;;;;;;9.70;3.60;;;16.00;99.90;;;;;;5051793;28;20097;-61
2021/08/29 02:59:16;;;;;;;14.85;3.40;;;16.00;99.90;;;;;;5039025;28;20050;-63
2021/08/29 03:01:43;;;;;;;14.23;4.03;;;16.00;99.90;;;;;;5048290;28;20076;-64
2021/08/29 03:04:09;;;;;;;8.15;2.90;;;16.00;99.90;;;;;;5054850;28;20048;-63
2021/08/29 03:06:35;;;;;;;9.27;3.55;;;16.10;99.90;;;;;;5027971;28;20472;-62
2021/08/29 03:09:01;;;;;;;15.10;3.20;;;16.10;99.90;;;;;;5045957;28;20121;-62
2021/08/29 03:11:27;;;;;;;12.63;3.60;;;16.00;99.90;;;;;;5036273;28;20050;-63
2021/08/29 03:13:54;;;;;;;8.68;3.42;;;16.00;99.90;;;;;;5034905;28;20558;-62
2021/08/29 03:16:20;;;;;;;8.63;3.03;;;16.00;99.90;;;;;;5046572;28;20045;-62
2021/08/29 03:18:46;;;;;;;13.60;3.03;;;16.10;99.90;;;;;;5060174;28;20044;-62
2021/08/29 03:21:12;;;;;;;10.07;3.30;;;16.10;99.90;;;;;;5044382;28;20048;-62
2021/08/29 03:23:38;;;;;;;17.15;3.75;;;16.10;99.90;;;;;;5058290;28;20047;-62
2021/08/29 03:26:04;;;;;;;13.18;3.03;;;16.20;99.90;;;;;;5043308;28;20037;-62
2021/08/29 03:28:30;;;;;;;11.07;2.70;;;16.10;99.90;;;;;;5041803;28;20041;-62
2021/08/29 03:30:56;;;;;;;12.65;3.28;;;16.10;99.90;;;;;;5040603;28;20104;-63
2021/08/29 03:33:23;;;;;;;12.50;3.30;;;16.20;99.90;;;;;;5054011;28;20069;-62
2021/08/29 03:35:52;;;;;;;7.95;3.25;;;16.20;99.90;;;;;;5036397;28;20029;-62
2021/08/29 03:38:20;;;;;;;12.43;3.45;;;16.20;99.90;;;;;;5050871;28;20566;-62
2021/08/29 03:40:46;;;;;;;11.70;3.42;;;16.20;99.90;;;;;;5049509;28;20048;-62
2021/08/29 03:43:14;;;;;;;12.80;3.50;;;16.20;99.90;;;;;;5040007;28;20038;-64
2021/08/29 03:45:40;;;;;;;14.43;3.50;;;16.20;99.90;;;;;;5058458;28;20078;-62
2021/08/29 03:48:08;;;;;;;10.32;3.65;;;16.20;99.90;;;;;;5047170;28;20074;-62
2021/08/29 03:50:34;;;;;;;10.35;3.15;;;16.10;99.90;;;;;;5046322;28;20050;-62
2021/08/29 03:53:01;;;;;;;9.98;3.47;;;16.20;99.90;;;;;;5037003;28;20040;-62
2021/08/29 03:55:28;;;;;;;8.57;2.90;;;16.20;99.90;;;;;;5059807;28;20048;-62
2021/08/29 03:57:55;;;;;;;13.70;3.78;;;16.20;99.90;;;;;;5044121;28;20041;-62
2021/08/29 04:00:21;;;;;;;10.65;3.28;;;16.20;99.90;;;;;;5057678;28;20095;-62
2021/08/29 04:02:47;;;;;;;7.82;3.30;;;16.20;99.90;;;;;;5041054;28;20498;-62
2021/08/29 04:05:13;;;;;;;13.10;3.60;;;16.20;99.90;;;;;;5048883;28;20052;-62
2021/08/29 04:07:39;;;;;;;11.35;3.83;;;16.20;99.90;;;;;;5041356;28;20140;-62
2021/08/29 04:10:06;;;;;;;16.73;4.40;;;16.20;99.90;;;;;;5055152;28;20095;-62
2021/08/29 04:12:33;;;;;;;13.80;3.95;;;16.20;99.90;;;;;;5042526;28;20048;-62
2021/08/29 04:14:59;;;;;;;13.13;3.58;;;16.10;99.90;;;;;;5051351;28;20040;-62
2021/08/29 04:17:25;;;;;;;20.63;4.28;;;16.20;99.90;;;;;;5043039;28;20230;-62
2021/08/29 04:19:52;;;;;;;15.77;3.47;;;16.10;99.90;;;;;;5045979;28;20125;-62
2021/08/29 04:22:18;;;;;;;12.32;4.28;;;16.10;99.90;;;;;;5047038;28;20038;-62
2021/08/29 04:24:43;;;;;;;17.50;4.20;;;16.10;99.90;;;;;;5040397;28;20052;-62
2021/08/29 04:27:10;;;;;;;11.77;3.67;;;16.10;99.90;;;;;;5037218;28;20038;-62
2021/08/29 04:29:36;;;;;;;18.48;4.00;;;16.10;99.90;;;;;;5037731;28;20473;-62
2021/08/29 04:32:03;;;;;;;24.33;4.40;;;16.10;99.90;;;;;;5055524;28;20053;-63
2021/08/29 04:34:29;;;;;;;13.88;3.92;;;16.00;99.90;;;;;;5043085;28;20042;-62
2021/08/29 04:36:55;;;;;;;13.10;3.78;;;16.00;99.90;;;;;;5041322;28;20046;-62
2021/08/29 04:39:21;;;;;;;16.50;4.55;;;15.80;99.90;;;;;;5055053;28;20574;-62
2021/08/29 04:41:46;;;;;;;14.68;4.10;;;15.60;99.90;;;;;;5040185;28;20042;-62
2021/08/29 04:44:12;;;;;;;12.52;4.05;;;15.40;99.90;;;;;;5053468;28;20063;-62
2021/08/29 04:46:38;;;;;;;13.30;3.88;;;15.30;99.90;;;;;;5028703;28;20050;-62
2021/08/29 04:49:05;;;;;;;12.27;3.97;;;15.10;99.90;;;;;;5052167;28;20080;-62
2021/08/29 04:51:31;;;;;;;12.05;3.45;;;15.10;99.90;;;;;;5036328;28;20520;-63
2021/08/29 04:53:57;;;;;;;12.02;3.97;;;15.10;99.90;;;;;;5040967;28;20042;-63
2021/08/29 04:56:22;;;;;;;13.90;4.03;;;15.10;99.90;;;;;;5063113;28;20055;-63
2021/08/29 04:58:49;;;;;;;18.55;4.45;;;15.00;99.90;;;;;;5051674;28;20064;-63
2021/08/29 05:01:14;;;;;;;16.52;4.78;;;15.00;99.90;;;;;;5095795;28;20125;-63
2021/08/29 05:03:40;;;;;;;18.40;4.55;;;15.00;99.90;;;;;;5049666;28;20044;-63
2021/08/29 05:06:06;;;;;;;18.20;4.53;;;15.00;99.90;;;;;;5062551;28;20844;-64
2021/08/29 05:08:31;;;;;;;15.32;4.22;;;15.00;99.90;;;;;;5048570;28;20063;-64
2021/08/29 05:10:57;;;;;;;10.50;4.13;;;15.10;99.90;;;;;;5062249;28;20111;-64
2021/08/29 05:13:23;;;;;;;17.80;4.63;;;15.10;99.90;;;;;;5078900;28;20053;-64
2021/08/29 05:15:48;;;;;;;15.10;4.65;;;15.10;99.90;;;;;;5060627;28;20116;-64
2021/08/29 05:18:14;;;;;;;15.10;3.80;;;15.10;99.90;;;;;;5045956;28;20037;-64
2021/08/29 05:20:40;;;;;;;20.05;4.22;;;15.10;99.90;;;;;;5058702;28;20045;-64
2021/08/29 05:23:06;;;;;;;14.95;3.95;;;15.20;99.90;;;;;;5044918;28;20065;-64
2021/08/29 05:25:31;;;;;;;11.13;4.07;;;15.20;99.90;;;;;;5058038;28;20556;-64
2021/08/29 05:27:58;;;;;;;15.20;4.22;;;15.20;99.90;;;;;;5041891;28;20053;-65
2021/08/29 05:30:23;;;;;;;27.80;4.35;;;15.20;99.90;;;;;;5055703;28;20065;-64
2021/08/29 05:32:49;;;;;;;17.20;4.15;;;15.10;99.90;;;;;;5046067;28;20056;-65
2021/08/29 05:35:15;;;;;;;19.08;3.70;;;15.10;99.90;;;;;;5038720;28;20053;-66
2021/08/29 05:37:40;;;;;;;19.67;3.70;;;15.20;99.90;;;;;;5059059;28;20496;-66
2021/08/29 05:40:07;;;;;;;19.10;3.75;;;15.10;99.90;;;;;;5049928;28;20038;-66
2021/08/29 05:42:32;;;;;;;23.58;4.25;;;15.10;99.90;;;;;;5053834;28;20052;-66
2021/08/29 05:44:58;;;;;;;20.48;3.88;;;15.10;99.90;;;;;;5042828;28;20046;-66
2021/08/29 05:47:23;;;;;;;27.63;4.50;;;15.10;99.90;;;;;;5049090;28;20057;-67
2021/08/29 05:49:49;;;;;;;18.65;4.47;;;15.10;99.90;;;;;;5055076;28;20049;-66
2021/08/29 05:52:15;;;;;;;21.70;3.00;;;15.10;99.90;;;;;;5043976;28;20075;-66
2021/08/29 05:54:40;;;;;;;27.27;4.18;;;15.10;99.90;;;;;;5056414;28;20118;-65
2021/08/29 05:57:06;;;;;;;19.25;4.28;;;15.10;99.90;;;;;;5042545;28;20045;-65
2021/08/29 05:59:32;;;;;;;29.65;4.03;;;15.10;99.90;;;;;;5054943;28;20045;-66
2021/08/29 06:01:57;;;;;;;21.38;4.55;;;15.10;99.90;;;;;;5041197;28;20049;-66
2021/08/29 06:04:23;;;;;;;24.98;3.78;;;15.10;99.90;;;;;;5054759;28;20041;-66
2021/08/29 06:06:49;;;;;;;20.88;4.07;;;15.10;99.90;;;;;;5048247;28;20083;-67
2021/08/29 06:09:14;;;;;;;28.35;5.28;;;15.10;99.90;;;;;;5052224;28;20049;-67
2021/08/29 06:11:40;;;;;;;30.63;4.93;;;15.10;99.90;;;;;;5052071;28;20040;-67
2021/08/29 06:14:06;;;;;;;25.08;4.75;;;15.10;99.90;;;;;;5050846;28;20504;-68
2021/08/29 06:16:33;;;;;;;35.80;5.30;;;15.10;99.90;;;;;;5063292;28;20036;-67
2021/08/29 06:18:58;;;;;;;33.38;5.38;;;15.20;99.90;;;;;;5047849;28;20417;-68
2021/08/29 06:21:24;;;;;;;12.88;4.70;;;15.10;99.90;;;;;;5061848;28;20041;-67
2021/08/29 06:23:50;;;;;;;19.95;4.80;;;15.20;99.90;;;;;;5046180;28;20095;-68
2021/08/29 06:26:15;;;;;;;12.10;3.60;;;15.10;99.90;;;;;;5060816;28;20123;-67
2021/08/29 06:28:41;;;;;;;19.35;4.82;;;15.10;99.90;;;;;;5042267;28;20112;-68
2021/08/29 06:31:07;;;;;;;19.63;4.63;;;15.10;99.90;;;;;;5090805;28;20080;-67
2021/08/29 06:33:32;;;;;;;17.65;4.72;;;15.10;99.90;;;;;;5044532;28;20045;-67
2021/08/29 06:35:58;;;;;;;19.98;5.03;;;15.10;99.90;;;;;;5043507;28;20047;-67
2021/08/29 06:38:24;;;;;;;31.58;6.03;;;15.00;99.90;;;;;;5063772;28;20037;-68
2021/08/29 06:40:49;;;;;;;21.45;6.45;;;15.00;99.90;;;;;;5080672;28;20063;-68
2021/08/29 06:43:15;;;;;;;27.67;7.13;;;15.10;99.90;;;;;;5061665;28;20041;-68
2021/08/29 06:45:41;;;;;;;36.90;6.78;;;15.10;99.90;;;;;;5047027;28;20045;-68
2021/08/29 06:48:07;;;;;;;21.90;6.10;;;15.10;99.90;;;;;;5092515;28;20037;-68
2021/08/29 06:50:33;;;;;;;28.60;7.15;;;15.10;99.90;;;;;;5042071;28;20049;-68
2021/08/29 06:52:59;;;;;;;23.38;7.32;;;15.10;99.90;;;;;;5057954;28;20037;-69
2021/08/29 06:55:24;;;;;;;27.13;7.22;;;15.10;99.90;;;;;;5048709;28;20060;-67
2021/08/29 06:57:50;;;;;;;28.10;7.50;;;15.20;99.90;;;;;;5038230;28;20093;-69
2021/08/29 07:00:16;;;;;;;29.98;8.77;;;15.20;99.90;;;;;;5040888;28;20498;-69
2021/08/29 07:02:41;;;;;;;29.30;7.93;;;15.10;99.90;;;;;;5047413;28;20116;-69
2021/08/29 07:05:08;;;;;;;22.50;7.25;;;15.10;99.90;;;;;;5053991;28;20042;-68
2021/08/29 07:07:34;;;;;;;23.13;7.25;;;15.10;99.90;;;;;;5042385;28;20097;-69
2021/08/29 07:09:59;;;;;;;23.98;8.10;;;15.10;99.90;;;;;;5054524;28;20073;-66
2021/08/29 07:12:25;;;;;;;30.20;9.40;;;15.10;99.90;;;;;;5041490;28;20077;-67
2021/08/29 07:14:51;;;;;;;23.38;9.82;;;15.10;99.90;;;;;;5054714;28;20041;-67
2021/08/29 07:17:18;;;;;;;19.40;7.32;;;15.10;99.90;;;;;;5039872;28;20052;-67
2021/08/29 07:19:45;;;;;;;28.25;8.35;;;15.10;99.90;;;;;;5052157;28;20045;-70
2021/08/29 07:22:11;;;;;;;19.55;7.07;;;15.10;99.90;;;;;;5038200;28;20051;-69
2021/08/29 07:24:36;;;;;;;31.38;8.95;;;15.20;99.90;;;;;;5051908;28;20131;-69
2021/08/29 07:27:02;;;;;;;19.98;8.57;;;15.20;99.90;;;;;;5044014;28;20097;-69
2021/08/29 07:29:28;;;;;;;18.35;6.72;;;15.20;99.90;;;;;;5049914;28;20528;-68
2021/08/29 07:31:54;;;;;;;26.17;7.20;;;15.30;99.90;;;;;;5061240;28;20060;-67
2021/08/29 07:34:19;;;;;;;21.20;7.65;;;15.30;99.90;;;;;;5040889;28;20048;-69
2021/08/29 07:36:45;;;;;;;24.83;7.65;;;15.30;99.90;;;;;;5050729;28;20052;-68
2021/08/29 07:39:11;;;;;;;27.52;8.32;;;15.40;99.90;;;;;;5033564;28;20064;-69
2021/08/29 07:41:36;;;;;;;28.58;8.20;;;15.40;99.90;;;;;;5048078;28;20052;-68
2021/08/29 07:44:02;;;;;;;25.58;6.75;;;15.40;99.90;;;;;;5036633;28;20062;-69
2021/08/29 07:46:29;;;;;;;17.98;6.80;;;15.50;99.90;;;;;;5048985;28;20128;-68
2021/08/29 07:48:55;;;;;;;20.10;6.57;;;15.50;99.90;;;;;;5062373;28;20036;-68
2021/08/29 07:51:20;;;;;;;21.40;7.45;;;15.60;99.90;;;;;;5047135;28;20155;-67
2021/08/29 07:53:46;;;;;;;24.95;7.82;;;15.60;99.90;;;;;;5061793;28;20043;-68
2021/08/29 07:56:12;;;;;;;17.05;5.75;;;15.60;99.90;;;;;;5041517;28;20101;-68
2021/08/29 07:58:37;;;;;;;21.17;8.23;;;15.70;99.90;;;;;;5052803;28;20044;-67
2021/08/29 08:01:03;;;;;;;14.90;5.80;;;15.70;99.90;;;;;;5044824;28;20056;-67
2021/08/29 08:03:29;;;;;;;17.33;5.55;;;15.70;99.90;;;;;;5049669;28;20046;-67
2021/08/29 08:05:55;;;;;;;15.07;5.60;;;15.70;99.90;;;;;;5034281;28;20077;-68
2021/08/29 08:08:20;;;;;;;14.27;5.32;;;15.70;99.90;;;;;;5057298;28;20045;-67
2021/08/29 08:10:46;;;;;;;14.57;5.38;;;15.70;99.90;;;;;;5046171;28;20052;-66
2021/08/29 08:13:12;;;;;;;21.63;4.75;;;15.80;99.90;;;;;;5046083;28;20049;-67
2021/08/29 08:15:38;;;;;;;10.85;4.32;;;15.90;99.90;;;;;;5048525;28;20034;-67
2021/08/29 08:18:03;;;;;;;12.93;4.70;;;16.00;99.90;;;;;;5037924;28;20379;-67
2021/08/29 08:20:29;;;;;;;15.30;4.88;;;16.00;99.90;;;;;;5050986;28;20464;-68
2021/08/29 08:22:55;;;;;;;9.57;4.43;;;16.10;99.90;;;;;;5042274;28;20053;-67
2021/08/29 08:25:21;;;;;;;12.40;4.35;;;16.20;99.90;;;;;;5054588;28;20084;-67
2021/08/29 08:27:47;;;;;;;12.40;4.00;;;16.20;99.90;;;;;;5039847;28;20105;-67
2021/08/29 08:30:13;;;;;;;12.00;4.32;;;16.30;99.90;;;;;;5052883;28;20065;-66
2021/08/29 08:32:39;;;;;;;14.63;4.03;;;16.20;99.90;;;;;;5036961;28;20053;-67
2021/08/29 08:35:05;;;;;;;12.60;3.83;;;16.20;99.90;;;;;;5045919;28;20136;-68
2021/08/29 08:37:30;;;;;;;10.65;4.03;;;16.20;99.90;;;;;;5060870;28;20037;-68
2021/08/29 08:39:56;;;;;;;7.43;3.20;;;16.20;99.90;;;;;;5044880;28;20047;-67
2021/08/29 08:42:24;;;;;;;11.02;3.55;;;16.20;99.90;;;;;;5058097;28;20128;-68
2021/08/29 08:44:49;;;;;;;7.55;3.75;;;16.20;99.90;;;;;;5044657;28;20060;-67
2021/08/29 08:47:18;;;;;;;14.65;3.60;;;16.10;99.90;;;;;;5057405;28;20033;-66
2021/08/29 08:49:45;;;;;;;9.82;3.30;;;16.10;99.90;;;;;;5039469;28;20036;-65
2021/08/29 08:52:18;;;;;;;5.78;3.25;;;16.00;99.90;;;;;;5053606;28;20135;-66
2021/08/29 08:54:46;;;;;;;10.35;3.50;;;16.00;99.90;;;;;;5040871;28;20049;-66
2021/08/29 08:57:16;;;;;;;9.40;3.28;;;16.00;99.90;;;;;;5028415;28;20042;-66
2021/08/29 08:59:44;;;;;;;11.35;3.83;;;16.00;99.90;;;;;;5038199;28;20037;-66
2021/08/29 09:02:10;;;;;;;10.57;3.70;;;15.90;99.90;;;;;;5046699;28;20049;-68
2021/08/29 09:04:36;;;;;;;11.93;3.60;;;15.90;99.90;;;;;;5062387;28;20060;-68
2021/08/29 09:07:02;;;;;;;7.85;3.75;;;15.90;99.90;;;;;;5049890;28;20041;-68
2021/08/29 09:09:28;;;;;;;9.57;3.10;;;16.00;99.90;;;;;;5063957;28;20037;-67
2021/08/29 09:11:55;;;;;;;11.68;3.72;;;15.90;99.90;;;;;;5048627;28;20403;-67
2021/08/29 09:14:21;;;;;;;14.73;3.85;;;16.00;99.90;;;;;;5061530;28;20086;-68
2021/08/29 09:16:51;;;;;;;8.38;3.78;;;16.00;99.90;;;;;;5047402;28;20098;-66
2021/08/29 09:19:18;;;;;;;11.13;4.07;;;16.10;99.90;;;;;;5061209;28;20049;-67
2021/08/29 09:21:43;;;;;;;11.53;3.97;;;16.20;99.90;;;;;;5041396;28;20033;-67
2021/08/29 09:24:11;;;;;;;9.30;3.47;;;16.20;99.90;;;;;;5054201;28;20048;-66
2021/08/29 09:26:44;;;;;;;10.02;3.20;;;16.30;99.90;;;;;;5043919;28;20050;-66
2021/08/29 09:29:24;;;;;;;8.15;3.05;;;16.30;99.90;;;;;;5090318;28;20049;-67
2021/08/29 09:31:51;;;;;;;9.25;2.53;;;16.40;99.90;;;;;;5042458;28;20559;-66
2021/08/29 09:34:22;;;;;;;11.73;3.70;;;16.40;99.90;;;;;;5044566;28;20087;-67
2021/08/29 09:36:51;;;;;;;9.32;3.15;;;16.40;99.90;;;;;;5044051;28;20071;-67
2021/08/29 09:39:19;;;;;;;11.23;2.58;;;16.40;99.90;;;;;;5044452;28;20045;-67
2021/08/29 09:41:46;;;;;;;10.90;1.98;;;16.40;99.90;;;;;;5059994;28;20045;-68
2021/08/29 09:44:17;;;;;;;5.32;2.45;;;16.40;99.90;;;;;;5044099;28;20033;-67
2021/08/29 09:46:55;;;;;;;7.95;2.13;;;16.40;99.90;;;;;;5091558;28;20056;-66
2021/08/29 09:49:39;;;;;;;;;;;16.40;99.90;;;;;;5044779;28;20249;-66
2021/08/29 09:52:07;;;;;;;6.97;2.90;;;16.40;99.90;;;;;;5048859;28;19925;-66
2021/08/29 09:54:42;;;;;;;8.13;2.28;;;16.40;99.90;;;;;;5040158;28;20076;-66
2021/08/29 09:57:13;;;;;;;6.63;2.45;;;16.40;99.90;;;;;;5088491;28;20501;-67
2021/08/29 09:59:51;;;;;;;6.95;2.65;;;16.30;99.90;;;;;;5073486;28;20096;-66
2021/08/29 10:02:27;;;;;;;8.05;3.05;;;16.30;99.90;;;;;;5051146;28;20048;-66
2021/08/29 10:05:12;;;;;;;5.88;2.58;;;16.30;99.90;;;;;;5066066;28;20472;-66
2021/08/29 10:07:38;;;;;;;4.70;2.47;;;16.40;99.90;;;;;;5054248;28;20048;-66
2021/08/29 10:10:28;;;;;;;12.68;3.33;;;16.40;99.90;;;;;;5050918;28;20087;-67
2021/08/29 10:12:55;;;;;;;6.10;2.47;;;16.30;99.90;;;;;;5055005;28;20053;-66
2021/08/29 10:15:21;;;;;;;7.72;3.15;;;16.40;99.90;;;;;;5043514;28;20493;-67
2021/08/29 10:17:50;;;;;;;5.95;3.08;;;16.50;99.90;;;;;;5051334;28;20096;-66
2021/08/29 10:20:17;;;;;;;6.00;2.60;;;16.50;99.90;;;;;;5036856;28;20041;-66
2021/08/29 10:22:43;;;;;;;;;;;16.60;99.90;;;;;;5050831;28;20045;-66
2021/08/29 10:25:10;;;;;;;5.03;3.13;;;16.70;99.90;;;;;;5063127;28;19947;-67
2021/08/29 10:27:40;;;;;;;5.15;2.35;;;16.70;99.90;;;;;;5048455;28;20041;-67
2021/08/29 10:30:12;;;;;;;10.23;3.58;;;16.80;99.90;;;;;;5060295;28;20029;-66
2021/08/29 10:32:46;;;;;;;6.55;3.17;;;16.80;99.90;;;;;;5046289;28;20148;-66
2021/08/29 10:35:13;;;;;;;5.82;3.05;;;16.80;99.90;;;;;;5046473;28;20052;-66
2021/08/29 10:37:43;;;;;;;;;;;16.80;99.90;;;;;;5051672;28;20047;-66
2021/08/29 10:40:11;;;;;;;9.25;3.67;;;16.80;99.90;;;;;;5050599;28;19921;-66
2021/08/29 10:42:39;;;;;;;6.63;3.63;;;16.80;99.90;;;;;;5052776;28;20095;-66
2021/08/29 10:45:06;;;;;;;6.97;3.05;;;16.80;99.90;;;;;;5048704;28;20037;-67
2021/08/29 10:47:33;;;;;;;9.15;3.17;;;16.80;99.90;;;;;;5061346;28;20055;-66
2021/08/29 10:50:01;;;;;;;5.75;3.13;;;16.80;99.90;;;;;;5040942;28;20373;-66
2021/08/29 10:52:31;;;;;;;11.95;3.40;;;16.70;99.90;;;;;;5041209;28;20084;-67
2021/08/29 10:55:08;;;;;;;5.55;3.38;;;16.70;99.90;;;;;;5043689;28;20041;-66
2021/08/29 10:57:35;;;;;;;10.85;4.07;;;16.70;99.90;;;;;;5058493;28;20056;-66
2021/08/29 11:00:18;;;;;;;11.43;3.60;;;16.60;99.90;;;;;;5036003;28;20050;-67
2021/08/29 11:02:46;;;;;;;7.90;3.92;;;16.50;99.90;;;;;;5050665;28;20050;-67
2021/08/29 11:05:36;;;;;;;10.65;3.80;;;16.40;99.90;;;;;;5056337;28;20060;-67
2021/08/29 11:08:23;;;;;;;11.32;3.60;;;16.40;99.90;;;;;;5022685;28;20053;-67
2021/08/29 11:10:50;;;;;;;10.32;4.05;;;16.40;99.90;;;;;;5042705;28;20038;-67
2021/08/29 11:13:28;;;;;;;7.10;4.18;;;16.40;99.90;;;;;;5054326;28;20056;-67
2021/08/29 11:16:15;;;;;;;5.47;3.47;;;16.40;99.90;;;;;;5041032;28;20046;-68
2021/08/29 11:18:59;;;;;;;8.70;3.97;;;16.50;99.90;;;;;;5025993;28;20110;-68
2021/08/29 11:21:26;;;;;;;7.18;3.80;;;16.60;99.90;;;;;;5042043;28;20041;-68
2021/08/29 11:23:52;;;;;;;5.63;3.33;;;16.70;99.90;;;;;;5056175;28;20079;-68
2021/08/29 11:26:32;;;;;;;9.70;3.83;;;16.80;99.90;;;;;;5043022;28;20088;-69
2021/08/29 11:28:58;;;;;;;8.88;3.95;;;16.80;99.90;;;;;;5062758;28;20041;-68
2021/08/29 11:31:52;;;;;;;8.13;3.85;;;16.80;99.90;;;;;;5051297;28;20053;-68
2021/08/29 11:34:18;;;;;;;12.23;3.72;;;16.80;99.90;;;;;;5039483;28;20051;-69
2021/08/29 11:36:45;;;;;;;15.63;5.18;;;16.80;99.90;;;;;;5034519;28;20053;-68
2021/08/29 11:39:30;;;;;;;9.10;3.97;;;16.80;99.90;;;;;;5044368;28;20053;-68
2021/08/29 11:42:16;;;;;;;9.57;4.03;;;16.80;99.90;;;;;;5031041;28;20054;-68
2021/08/29 11:44:43;;;;;;;9.32;4.45;;;16.80;99.90;;;;;;5032753;28;20041;-68
2021/08/29 11:47:09;;;;;;;12.37;5.50;;;16.80;99.90;;;;;;5030531;28;20080;-67
2021/08/29 11:49:36;;;;;;;5.28;3.33;;;16.90;99.90;;;;;;5080608;28;20337;-68
2021/08/29 11:52:02;;;;;;;7.35;4.15;;;16.80;99.90;;;;;;5048516;28;20048;-67
2021/08/29 11:54:28;;;;;;;11.95;4.45;;;16.80;99.90;;;;;;5047574;28;20045;-68
2021/08/29 11:56:53;;;;;;;7.10;3.75;;;16.80;99.90;;;;;;5060403;28;20048;-69
2021/08/29 11:59:31;;;;;;;8.68;3.78;;;16.80;99.90;;;;;;5045795;28;20433;-68
2021/08/29 12:01:58;;;;;;;10.43;4.47;;;16.90;99.90;;;;;;5058713;28;20076;-67
2021/08/29 12:04:24;;;;;;;9.70;3.97;;;16.90;99.90;;;;;;5058348;28;20059;-68
2021/08/29 12:06:53;;;;;;;9.55;4.47;;;17.00;99.90;;;;;;5056688;28;20127;-69
2021/08/29 12:09:28;;;;;;;5.40;3.47;;;17.10;99.90;;;;;;5043179;28;20116;-68
2021/08/29 12:11:55;;;;;;;9.63;4.05;;;17.30;99.90;;;;;;5056274;28;20105;-68
2021/08/29 12:14:23;;;;;;;6.75;3.53;;;17.30;99.90;;;;;;5040326;28;20121;-67
2021/08/29 12:16:51;;;;;;;14.65;4.57;;;17.40;99.90;;;;;;5036459;28;20048;-67
2021/08/29 12:19:23;;;;;;;;;;;17.40;99.90;;;;;;5042691;28;20042;-68
2021/08/29 12:21:50;;;;;;;11.13;4.68;;;17.40;99.90;;;;;;5048521;28;20021;-68
2021/08/29 12:24:35;;;;;;;6.07;4.38;;;17.40;99.90;;;;;;5043333;28;20082;-67
2021/08/29 12:27:06;;;;;;;8.18;4.30;;;17.40;99.90;;;;;;5035677;28;20033;-67
2021/08/29 12:29:48;;;;;;;9.15;4.22;;;17.20;99.90;;;;;;5072390;28;20056;-67
2021/08/29 12:32:25;;;;;;;8.68;4.63;;;17.30;99.90;;;;;;5043823;28;20060;-67
2021/08/29 12:35:17;;;;;;;10.10;4.47;;;17.40;99.90;;;;;;5045802;28;20092;-67
2021/08/29 12:37:46;;;;;;;10.90;4.38;;;17.50;99.90;;;;;;5036325;28;20041;-67
2021/08/29 12:40:16;;;;;;;6.65;4.15;;;17.50;99.90;;;;;;5055243;28;20040;-67
2021/08/29 12:42:44;;;;;;;12.13;4.93;;;17.40;99.90;;;;;;5040486;28;20037;-67
2021/08/29 12:45:12;;;;;;;10.20;4.13;;;17.50;99.90;;;;;;5053448;28;20091;-67